Time,TemperatureF,DewpointF,PressureIn,WindDirection,WindDirectionDegrees,WindSpeedMPH,WindSpeedGustMPH,Humidity,HourlyPrecipIn,Conditions,Clouds,dailyrainin,SolarRadiationWatts/m^2,SoftwareType,DateUTC
2013-02-22 00:20:00,19.0,15.8,30.40,SSE,165,0.0,1.0,87,0.00,,,0.00,0,Wunderground v.1.15,2013-02-22 05:20:00,
2013-02-22 00:30:00,18.9,15.9,30.41,SW,234,1.0,1.0,88,0.00,,,0.00,0,Wunderground v.1.15,2013-02-22 05:30:00,
2013-02-22 00:40:00,19.1,15.9,30.40,SE,142,1.0,1.0,87,0.00,,,0.00,0,Wunderground v.1.15,2013-02-22 05:40:00,
2013-02-22 00:50:00,18.7,15.5,30.40,SE,142,0.0,0.0,87,0.00,,,0.00,0,Wunderground v.1.15,2013-02-22 05:50:00,
2013-02-22 01:00:00,18.6,15.4,30.40,SE,142,0.0,0.0,87,0.00,,,0.00,0,Wunderground v.1.15,2013-02-22 06:00:00,
2013-02-22 01:10:00,18.5,15.5,30.40,SSW,193,1.0,2.0,88,0.00,,,0.00,0,Wunderground v.1.15,2013-02-22 06:10:00,
2013-02-22 01:20:00,18.7,16.0,30.41,SSW,194,2.0,3.0,89,0.00,,,0.00,0,Wunderground v.1.15,2013-02-22 06:20:00,
2013-02-22 01:30:00,19.3,16.8,30.41,SSW,209,2.0,2.0,90,0.00,,,0.00,0,Wunderground v.1.15,2013-02-22 06:30:00,
2013-02-22 01:40:00,20.2,17.7,30.41,SSW,203,2.0,4.0,90,0.00,,,0.00,0,Wunderground v.1.15,2013-02-22 06:40:00,
2013-02-22 01:50:00,20.9,18.2,30.41,SSW,207,3.0,3.0,89,0.00,,,0.00,0,Wunderground v.1.15,2013-02-22 06:50:00,
2013-02-22 02:00:00,21.1,17.8,30.40,SSW,207,1.0,1.0,87,0.00,,,0.00,0,Wunderground v.1.15,2013-02-22 07:00:00,
2013-02-22 02:10:00,21.3,18.0,30.40,SSW,207,0.0,0.0,87,0.00,,,0.00,0,Wunderground v.1.15,2013-02-22 07:10:00,
2013-02-22 02:20:00,21.3,18.0,30.40,SSW,192,0.0,3.0,87,0.00,,,0.00,0,Wunderground v.1.15,2013-02-22 07:20:00,
2013-02-22 02:30:00,21.3,18.3,30.40,South,186,2.0,3.0,88,0.00,,,0.00,0,Wunderground v.1.15,2013-02-22 07:30:00,
2013-02-22 02:40:00,21.5,18.5,30.41,South,188,2.0,2.0,88,0.00,,,0.00,0,Wunderground v.1.15,2013-02-22 07:40:00,
2013-02-22 02:50:00,21.7,18.4,30.41,SSW,211,1.0,1.0,87,0.00,,,0.00,0,Wunderground v.1.15,2013-02-22 07:50:00,
2013-02-22 03:00:00,21.9,18.6,30.42,South,174,1.0,1.0,87,0.00,,,0.00,0,Wunderground v.1.15,2013-02-22 08:00:00,
2013-02-22 03:10:00,22.0,18.7,30.41,South,174,0.0,0.0,87,0.00,,,0.00,0,Wunderground v.1.15,2013-02-22 08:10:00,
2013-02-22 03:20:00,22.0,18.7,30.41,South,174,0.0,0.0,87,0.00,,,0.00,0,Wunderground v.1.15,2013-02-22 08:20:00,
2013-02-22 03:30:00,22.0,18.7,30.42,South,174,0.0,0.0,87,0.00,,,0.00,0,Wunderground v.1.15,2013-02-22 08:30:00,
2013-02-22 03:40:00,22.1,19.1,30.41,South,176,0.0,0.0,88,0.00,,,0.00,0,Wunderground v.1.15,2013-02-22 08:40:00,
2013-02-22 03:50:00,22.3,19.3,30.42,South,176,0.0,0.0,88,0.00,,,0.00,0,Wunderground v.1.15,2013-02-22 08:50:00,
2013-02-22 04:00:00,22.5,19.5,30.42,South,176,0.0,0.0,88,0.00,,,0.00,0,Wunderground v.1.15,2013-02-22 09:00:00,
2013-02-22 04:10:00,22.5,19.5,30.41,South,176,0.0,0.0,88,0.00,,,0.00,0,Wunderground v.1.15,2013-02-22 09:10:00,
2013-02-22 04:20:00,22.7,19.4,30.40,South,176,0.0,0.0,87,0.00,,,0.00,0,Wunderground v.1.15,2013-02-22 09:20:00,
2013-02-22 04:30:00,22.8,19.8,30.39,SE,133,0.0,1.0,88,0.00,,,0.00,0,Wunderground v.1.15,2013-02-22 09:30:00,
2013-02-22 04:40:00,22.9,19.6,30.39,East,96,2.0,2.0,87,0.00,,,0.00,0,Wunderground v.1.15,2013-02-22 09:40:00,
2013-02-22 04:50:00,23.1,19.8,30.39,SE,132,2.0,3.0,87,0.00,,,0.00,0,Wunderground v.1.15,2013-02-22 09:50:00,
2013-02-22 05:00:00,23.3,20.0,30.39,SSE,152,2.0,2.0,87,0.00,,,0.00,0,Wunderground v.1.15,2013-02-22 10:00:00,
2013-02-22 05:10:00,23.3,19.7,30.40,SSE,160,2.0,2.0,86,0.00,,,0.00,0,Wunderground v.1.15,2013-02-22 10:10:00,
2013-02-22 05:20:00,23.0,19.4,30.40,SSE,160,0.0,0.0,86,0.00,,,0.00,0,Wunderground v.1.15,2013-02-22 10:20:00,
2013-02-22 05:30:00,22.8,19.2,30.39,SSE,160,0.0,0.0,86,0.00,,,0.00,0,Wunderground v.1.15,2013-02-22 10:30:00,
2013-02-22 05:40:00,22.4,18.8,30.40,SSE,160,0.0,0.0,86,0.00,,,0.00,0,Wunderground v.1.15,2013-02-22 10:40:00,
2013-02-22 05:50:00,22.1,18.6,30.40,SSE,160,0.0,0.0,86,0.00,,,0.00,0,Wunderground v.1.15,2013-02-22 10:50:00,
2013-02-22 06:00:00,21.5,18.2,30.39,SSE,160,0.0,0.0,87,0.00,,,0.00,0,Wunderground v.1.15,2013-02-22 11:00:00,
2013-02-22 06:10:00,21.2,18.2,30.39,SSE,160,0.0,0.0,88,0.00,,,0.00,0,Wunderground v.1.15,2013-02-22 11:10:00,
2013-02-22 06:20:00,20.6,17.6,30.40,SSE,160,0.0,0.0,88,0.00,,,0.00,0,Wunderground v.1.15,2013-02-22 11:20:00,
2013-02-22 06:30:00,20.2,17.5,30.41,SSE,160,0.0,0.0,89,0.00,,,0.00,0,Wunderground v.1.15,2013-02-22 11:30:00,
2013-02-22 06:40:00,20.0,17.3,30.39,SSE,160,0.0,0.0,89,0.00,,,0.00,0,Wunderground v.1.15,2013-02-22 11:40:00,
2013-02-22 06:50:00,19.8,17.1,30.40,SSE,160,0.0,0.0,89,0.00,,,0.00,7,Wunderground v.1.15,2013-02-22 11:50:00,
2013-02-22 07:00:00,20.1,17.9,30.39,SSE,160,0.0,0.0,91,0.00,,,0.00,5,Wunderground v.1.15,2013-02-22 12:00:00,
2013-02-22 07:10:00,19.9,17.4,30.39,ESE,121,1.0,1.0,90,0.00,,,0.00,12,Wunderground v.1.15,2013-02-22 12:10:00,
2013-02-22 07:20:00,20.1,17.9,30.39,ESE,119,1.0,2.0,91,0.00,,,0.00,21,Wunderground v.1.15,2013-02-22 12:20:00,
2013-02-22 07:30:00,20.7,18.5,30.38,ESE,107,2.0,3.0,91,0.00,,,0.00,25,Wunderground v.1.15,2013-02-22 12:30:00,
2013-02-22 07:40:00,21.2,19.0,30.38,ESE,115,3.0,3.0,91,0.00,,,0.00,30,Wunderground v.1.15,2013-02-22 12:40:00,
2013-02-22 07:50:00,21.9,19.7,30.37,ESE,109,2.0,4.0,91,0.00,,,0.00,37,Wunderground v.1.15,2013-02-22 12:50:00,
2013-02-22 08:00:00,22.5,20.0,30.37,ESE,106,4.0,4.0,90,0.00,,,0.00,46,Wunderground v.1.15,2013-02-22 13:00:00,
2013-02-22 08:10:00,22.9,20.1,30.36,SE,132,4.0,6.0,89,0.00,,,0.00,53,Wunderground v.1.15,2013-02-22 13:10:00,
2013-02-22 08:20:00,23.2,20.2,30.37,SE,124,4.0,5.0,88,0.00,,,0.00,60,Wunderground v.1.15,2013-02-22 13:20:00,
2013-02-22 08:30:00,23.3,20.3,30.37,SE,138,6.0,6.0,88,0.00,,,0.00,67,Wunderground v.1.15,2013-02-22 13:30:00,
2013-02-22 08:40:00,23.3,20.3,30.36,SE,130,5.0,6.0,88,0.00,,,0.00,72,Wunderground v.1.15,2013-02-22 13:40:00,
2013-02-22 08:50:00,23.4,20.4,30.36,SE,125,5.0,7.0,88,0.00,,,0.00,79,Wunderground v.1.15,2013-02-22 13:50:00,
2013-02-22 09:00:00,23.4,20.1,30.35,ESE,111,5.0,5.0,87,0.00,,,0.00,93,Wunderground v.1.15,2013-02-22 14:00:00,
2013-02-22 09:10:00,23.3,20.0,30.35,ESE,119,7.0,8.0,87,0.00,,,0.00,120,Wunderground v.1.15,2013-02-22 14:10:00,
2013-02-22 09:20:00,23.3,20.0,30.35,SE,134,8.0,8.0,87,0.00,,,0.00,118,Wunderground v.1.15,2013-02-22 14:20:00,
2013-02-22 09:30:00,23.5,20.2,30.35,ESE,120,6.0,9.0,87,0.00,,,0.00,116,Wunderground v.1.15,2013-02-22 14:30:00,
2013-02-22 09:40:00,23.6,20.3,30.36,SE,124,7.0,7.0,87,0.00,,,0.00,135,Wunderground v.1.15,2013-02-22 14:40:00,
2013-02-22 09:50:00,23.7,20.4,30.34,SE,125,7.0,7.0,87,0.00,,,0.00,109,Wunderground v.1.15,2013-02-22 14:50:00,
2013-02-22 10:00:00,23.7,20.4,30.34,ESE,106,7.0,7.0,87,0.00,,,0.00,123,Wunderground v.1.15,2013-02-22 15:00:00,
2013-02-22 10:10:00,23.9,20.6,30.33,ESE,118,7.0,7.0,87,0.00,,,0.00,160,Wunderground v.1.15,2013-02-22 15:10:00,
2013-02-22 10:20:00,24.3,20.7,30.33,ESE,120,7.0,7.0,86,0.00,,,0.00,209,Wunderground v.1.15,2013-02-22 15:20:00,
2013-02-22 10:30:00,25.0,21.1,30.31,ESE,122,9.0,9.0,85,0.00,,,0.00,362,Wunderground v.1.15,2013-02-22 15:30:00,
2013-02-22 10:40:00,25.6,21.7,30.30,ESE,112,10.0,11.0,85,0.00,,,0.00,396,Wunderground v.1.15,2013-02-22 15:40:00,
2013-02-22 10:50:00,26.4,22.2,30.29,SE,134,11.0,11.0,84,0.00,,,0.00,693,Wunderground v.1.15,2013-02-22 15:50:00,
2013-02-22 11:00:00,27.5,22.7,30.29,East,101,8.0,13.0,82,0.00,,,0.00,629,Wunderground v.1.15,2013-02-22 16:00:00,
2013-02-22 11:10:00,27.3,22.5,30.28,ESE,118,11.0,12.0,82,0.00,,,0.00,322,Wunderground v.1.15,2013-02-22 16:10:00,
2013-02-22 11:20:00,27.7,22.6,30.28,SE,128,11.0,11.0,81,0.00,,,0.00,387,Wunderground v.1.15,2013-02-22 16:20:00,
2013-02-22 11:30:00,27.9,22.8,30.26,SE,134,10.0,15.0,81,0.00,,,0.00,306,Wunderground v.1.15,2013-02-22 16:30:00,
2013-02-22 11:40:00,27.8,23.0,30.26,ESE,109,11.0,11.0,82,0.00,,,0.00,323,Wunderground v.1.15,2013-02-22 16:40:00,
2013-02-22 11:50:00,28.1,23.0,30.26,ESE,110,9.0,11.0,81,0.00,,,0.00,383,Wunderground v.1.15,2013-02-22 16:50:00,
2013-02-22 12:00:00,28.8,23.7,30.24,SE,124,9.0,9.0,81,0.00,,,0.00,346,Wunderground v.1.15,2013-02-22 17:00:00,
2013-02-22 12:10:00,29.2,23.5,30.24,SE,140,12.0,13.0,79,0.00,,,0.00,381,Wunderground v.1.15,2013-02-22 17:10:00,
2013-02-22 12:20:00,29.4,23.7,30.23,SE,134,11.0,11.0,79,0.00,,,0.00,383,Wunderground v.1.15,2013-02-22 17:20:00,
2013-02-22 12:30:00,29.7,23.7,30.23,SSE,150,10.0,13.0,78,0.00,,,0.00,336,Wunderground v.1.15,2013-02-22 17:30:00,
2013-02-22 12:40:00,29.9,23.9,30.22,ESE,123,10.0,10.0,78,0.00,,,0.00,316,Wunderground v.1.15,2013-02-22 17:40:00,
2013-02-22 12:50:00,30.2,23.9,30.22,SE,138,8.0,9.0,77,0.00,,,0.00,341,Wunderground v.1.15,2013-02-22 17:50:00,
2013-02-22 13:00:00,30.4,24.4,30.20,SE,132,10.0,12.0,78,0.00,,,0.00,320,Wunderground v.1.15,2013-02-22 18:00:00,
2013-02-22 13:10:00,30.7,23.7,30.18,SE,136,12.0,12.0,75,0.00,,,0.00,338,Wunderground v.1.15,2013-02-22 18:10:00,
2013-02-22 13:20:00,31.3,24.3,30.18,SSE,159,11.0,11.0,75,0.00,,,0.00,290,Wunderground v.1.15,2013-02-22 18:20:00,
2013-02-22 13:30:00,31.3,24.3,30.17,ESE,119,11.0,11.0,75,0.00,,,0.00,209,Wunderground v.1.15,2013-02-22 18:30:00,
2013-02-22 13:40:00,31.3,24.0,30.17,SE,134,11.0,13.0,74,0.00,,,0.00,248,Wunderground v.1.15,2013-02-22 18:40:00,
2013-02-22 13:50:00,32.0,24.6,30.17,SE,130,9.0,12.0,74,0.00,,,0.00,316,Wunderground v.1.15,2013-02-22 18:50:00,
2013-02-22 14:00:00,32.5,24.8,30.18,SE,132,9.0,12.0,73,0.00,,,0.00,287,Wunderground v.1.15,2013-02-22 19:00:00,
2013-02-22 14:10:00,32.9,24.9,30.18,SSE,167,9.0,9.0,72,0.00,,,0.00,292,Wunderground v.1.15,2013-02-22 19:10:00,
2013-02-22 14:20:00,33.1,25.1,30.17,SE,130,10.0,16.0,72,0.00,,,0.00,146,Wunderground v.1.15,2013-02-22 19:20:00,
2013-02-22 14:30:00,33.1,25.4,30.17,SE,136,11.0,11.0,73,0.00,,,0.00,163,Wunderground v.1.15,2013-02-22 19:30:00,
2013-02-22 14:40:00,33.3,25.2,30.17,SE,131,9.0,12.0,72,0.00,,,0.00,142,Wunderground v.1.15,2013-02-22 19:40:00,
2013-02-22 14:50:00,33.5,24.8,30.17,SE,132,10.0,10.0,70,0.00,,,0.00,128,Wunderground v.1.15,2013-02-22 19:50:00,
2013-02-22 15:00:00,33.6,25.5,30.17,ESE,122,10.0,10.0,72,0.00,,,0.00,111,Wunderground v.1.15,2013-02-22 20:00:00,
2013-02-22 15:10:00,33.5,25.4,30.17,SSE,147,9.0,9.0,72,0.00,,,0.00,46,Wunderground v.1.15,2013-02-22 20:10:00,
2013-02-22 15:20:00,32.9,28.0,30.16,SE,144,10.0,16.0,82,0.00,,,0.00,58,Wunderground v.1.15,2013-02-22 20:20:00,
2013-02-22 15:30:00,31.4,28.3,30.15,SE,126,11.0,11.0,88,0.00,,,0.00,46,Wunderground v.1.15,2013-02-22 20:30:00,
2013-02-22 15:40:00,30.9,28.6,30.16,SE,126,9.0,9.0,91,0.00,,,0.00,70,Wunderground v.1.15,2013-02-22 20:40:00,
2013-02-22 15:50:00,30.9,28.9,30.14,SE,146,8.0,9.0,92,0.00,,,0.00,148,Wunderground v.1.15,2013-02-22 20:50:00,
2013-02-22 16:00:00,31.0,28.9,30.14,SE,141,10.0,10.0,92,0.00,,,0.00,70,Wunderground v.1.15,2013-02-22 21:00:00,
2013-02-22 16:10:00,31.0,29.2,30.12,ESE,108,10.0,10.0,93,0.00,,,0.00,69,Wunderground v.1.15,2013-02-22 21:10:00,
2013-02-22 16:20:00,31.2,29.1,30.12,SE,126,11.0,11.0,92,0.00,,,0.00,77,Wunderground v.1.15,2013-02-22 21:20:00,
2013-02-22 16:30:00,31.5,29.4,30.11,SE,130,9.0,10.0,92,0.00,,,0.00,74,Wunderground v.1.15,2013-02-22 21:30:00,
2013-02-22 16:40:00,31.5,29.4,30.11,ESE,109,10.0,13.0,92,0.00,,,0.00,62,Wunderground v.1.15,2013-02-22 21:40:00,
2013-02-22 16:50:00,31.6,29.3,30.11,SE,136,11.0,11.0,91,0.00,,,0.00,35,Wunderground v.1.15,2013-02-22 21:50:00,
2013-02-22 17:00:00,31.7,29.1,30.10,SSE,148,11.0,15.0,90,0.00,,,0.00,37,Wunderground v.1.15,2013-02-22 22:00:00,
2013-02-22 17:10:00,32.0,29.4,30.10,SE,132,10.0,10.0,90,0.00,,,0.00,23,Wunderground v.1.15,2013-02-22 22:10:00,
2013-02-22 17:20:00,32.3,28.9,30.10,SE,144,11.0,11.0,87,0.00,,,0.00,14,Wunderground v.1.15,2013-02-22 22:20:00,
2013-02-22 17:30:00,32.9,28.9,30.10,SSE,149,11.0,11.0,85,0.00,,,0.00,7,Wunderground v.1.15,2013-02-22 22:30:00,
2013-02-22 17:40:00,33.3,28.4,30.10,SE,146,11.0,11.0,82,0.00,,,0.00,0,Wunderground v.1.15,2013-02-22 22:40:00,
2013-02-22 17:50:00,33.9,28.1,30.10,SE,142,12.0,14.0,79,0.00,,,0.00,0,Wunderground v.1.15,2013-02-22 22:50:00,
2013-02-22 18:00:00,34.3,27.8,30.10,SSE,161,12.0,12.0,77,0.00,,,0.00,0,Wunderground v.1.15,2013-02-22 23:00:00,
2013-02-22 18:10:00,34.4,28.2,30.10,SE,144,11.0,11.0,78,0.00,,,0.00,0,Wunderground v.1.15,2013-02-22 23:10:00,
2013-02-22 18:20:00,34.3,27.8,30.09,SSE,162,11.0,12.0,77,0.00,,,0.00,0,Wunderground v.1.15,2013-02-22 23:20:00,
2013-02-22 18:30:00,34.4,27.6,30.09,SE,130,11.0,11.0,76,0.00,,,0.00,0,Wunderground v.1.15,2013-02-22 23:30:00,
2013-02-22 18:40:00,34.6,27.5,30.09,SE,141,11.0,13.0,75,0.00,,,0.00,0,Wunderground v.1.15,2013-02-22 23:40:00,
2013-02-22 18:50:00,34.8,27.4,30.09,SSE,147,10.0,13.0,74,0.00,,,0.00,0,Wunderground v.1.15,2013-02-22 23:50:00,
2013-02-22 19:00:00,35.0,27.2,30.08,SSE,157,10.0,10.0,73,0.00,,,0.00,0,Wunderground v.1.15,2013-02-23 00:00:00,
2013-02-22 19:10:00,35.1,27.3,30.08,South,171,9.0,9.0,73,0.00,,,0.00,0,Wunderground v.1.15,2013-02-23 00:10:00,
2013-02-22 19:20:00,35.2,27.4,30.08,SSE,147,9.0,14.0,73,0.00,,,0.00,0,Wunderground v.1.15,2013-02-23 00:20:00,
2013-02-22 19:30:00,35.5,27.7,30.08,SSE,161,10.0,10.0,73,0.00,,,0.00,0,Wunderground v.1.15,2013-02-23 00:30:00,
2013-02-22 19:40:00,35.6,27.8,30.08,SSE,154,11.0,12.0,73,0.00,,,0.00,0,Wunderground v.1.15,2013-02-23 00:40:00,
2013-02-22 19:50:00,35.7,27.6,30.08,SE,142,11.0,11.0,72,0.00,,,0.00,0,Wunderground v.1.15,2013-02-23 00:50:00,
2013-02-22 20:00:00,35.6,27.5,30.08,SE,129,10.0,10.0,72,0.00,,,0.00,0,Wunderground v.1.15,2013-02-23 01:00:00,
2013-02-22 20:10:00,35.5,27.7,30.07,SE,139,10.0,11.0,73,0.00,,,0.00,0,Wunderground v.1.15,2013-02-23 01:10:00,
2013-02-22 20:20:00,35.4,27.6,30.07,SSE,159,10.0,14.0,73,0.00,,,0.00,0,Wunderground v.1.15,2013-02-23 01:20:00,
2013-02-22 20:30:00,35.3,27.5,30.07,South,180,10.0,11.0,73,0.00,,,0.00,0,Wunderground v.1.15,2013-02-23 01:30:00,
2013-02-22 20:40:00,35.2,27.7,30.07,SSE,165,9.0,9.0,74,0.00,,,0.00,0,Wunderground v.1.15,2013-02-23 01:40:00,
2013-02-22 20:50:00,35.1,28.0,30.07,SSE,156,9.0,12.0,75,0.00,,,0.00,0,Wunderground v.1.15,2013-02-23 01:50:00,
2013-02-22 21:00:00,35.0,27.9,30.07,South,171,9.0,13.0,75,0.00,,,0.00,0,Wunderground v.1.15,2013-02-23 02:00:00,
2013-02-22 21:10:00,34.9,28.1,30.07,SSE,163,10.0,10.0,76,0.00,,,0.00,0,Wunderground v.1.15,2013-02-23 02:10:00,
2013-02-22 21:20:00,34.9,27.8,30.07,SSE,157,10.0,10.0,75,0.00,,,0.00,0,Wunderground v.1.15,2013-02-23 02:20:00,
2013-02-22 21:30:00,34.8,27.7,30.06,SSE,167,9.0,10.0,75,0.00,,,0.00,0,Wunderground v.1.15,2013-02-23 02:30:00,
2013-02-22 21:40:00,34.8,28.0,30.06,South,176,10.0,10.0,76,0.00,,,0.00,0,Wunderground v.1.15,2013-02-23 02:40:00,
2013-02-22 21:50:00,34.8,28.0,30.05,South,174,10.0,10.0,76,0.00,,,0.00,0,Wunderground v.1.15,2013-02-23 02:50:00,
2013-02-22 22:00:00,34.4,27.6,30.06,SSE,148,10.0,10.0,76,0.00,,,0.00,0,Wunderground v.1.15,2013-02-23 03:00:00,
2013-02-22 22:10:00,34.0,27.2,30.05,SSE,155,8.0,10.0,76,0.00,,,0.00,0,Wunderground v.1.15,2013-02-23 03:10:00,
2013-02-22 22:20:00,33.7,27.3,30.04,SSE,158,7.0,9.0,77,0.00,,,0.00,0,Wunderground v.1.15,2013-02-23 03:20:00,
2013-02-22 22:30:00,33.4,27.3,30.05,SSE,163,7.0,7.0,78,0.00,,,0.00,0,Wunderground v.1.15,2013-02-23 03:30:00,
2013-02-22 22:40:00,33.3,27.2,30.05,SSE,150,6.0,10.0,78,0.00,,,0.00,0,Wunderground v.1.15,2013-02-23 03:40:00,
2013-02-22 22:50:00,33.2,27.4,30.04,South,186,7.0,7.0,79,0.00,,,0.00,0,Wunderground v.1.15,2013-02-23 03:50:00,
2013-02-22 23:00:00,33.0,27.2,30.04,SSE,163,8.0,9.0,79,0.00,,,0.00,0,Wunderground v.1.15,2013-02-23 04:00:00,
2013-02-22 23:10:00,32.8,27.0,30.05,South,171,8.0,8.0,79,0.00,,,0.00,0,Wunderground v.1.15,2013-02-23 04:10:00,
2013-02-22 23:20:00,32.6,26.8,30.04,SSE,162,8.0,8.0,79,0.00,,,0.00,0,Wunderground v.1.15,2013-02-23 04:20:00,
2013-02-22 23:30:00,32.5,26.7,30.05,SE,138,6.0,6.0,79,0.00,,,0.00,0,Wunderground v.1.15,2013-02-23 04:30:00,
2013-02-22 23:40:00,32.6,27.1,30.03,SSE,159,6.0,6.0,80,0.00,,,0.00,0,Wunderground v.1.15,2013-02-23 04:40:00,
2013-02-22 23:50:00,32.9,27.4,30.04,SSE,152,6.0,6.0,80,0.00,,,0.00,0,Wunderground v.1.15,2013-02-23 04:50:00,